Time;durP1;ratioP1;P1;durP2;ratioP2;P2;SDS_P1;SDS_P2;PMS_P1;PMS_P2;Temp;Humidity;BMP_temperature;BMP_pressure;BME280_temperature;BME280_humidity;BME280_pressure;Samples;Min_cycle;Max_cycle;Signal;HPM_P1;HPM_P2
2022/01/05 00:04:19;;;;;;;0.80;0.80;;;9.00;42.20;;;;;;10417932;28;20227;-69
2022/01/05 00:09:22;;;;;;;0.70;0.70;;;8.90;42.00;;;;;;10418050;28;20259;-74
2022/01/05 00:14:27;;;;;;;0.70;0.70;;;8.80;42.30;;;;;;10422668;28;20247;-75
2022/01/05 00:19:32;;;;;;;0.73;0.73;;;8.80;42.50;;;;;;10414770;28;20225;-74
2022/01/05 00:24:36;;;;;;;0.70;0.70;;;8.80;42.00;;;;;;10417009;28;20224;-74
2022/01/05 00:29:40;;;;;;;0.70;0.70;;;8.60;42.10;;;;;;10419063;28;20968;-74
2022/01/05 00:34:44;;;;;;;0.70;0.70;;;8.60;42.30;;;;;;10416400;28;20717;-75
2022/01/05 00:39:47;;;;;;;0.60;0.60;;;8.50;42.10;;;;;;10415269;28;20225;-74
2022/01/05 00:44:52;;;;;;;0.70;0.70;;;8.30;42.40;;;;;;10411535;28;20236;-74
2022/01/05 00:49:55;;;;;;;0.60;0.60;;;8.20;42.70;;;;;;10418155;28;20237;-74
2022/01/05 00:54:58;;;;;;;0.80;0.80;;;8.20;42.50;;;;;;10418238;28;20229;-75
2022/01/05 01:00:04;;;;;;;0.83;0.83;;;8.10;42.50;;;;;;10411682;28;20732;-72
2022/01/05 01:05:08;;;;;;;1.10;0.90;;;8.10;42.70;;;;;;10414983;28;20244;-74
2022/01/05 01:10:11;;;;;;;0.70;0.70;;;8.10;42.60;;;;;;10413627;28;20291;-74
2022/01/05 01:15:16;;;;;;;0.60;0.60;;;8.10;43.20;;;;;;10419566;28;20313;-75
2022/01/05 01:20:20;;;;;;;1.07;0.60;;;8.10;42.50;;;;;;10426453;28;20954;-74
2022/01/05 01:25:23;;;;;;;0.53;0.53;;;8.10;42.70;;;;;;10422822;28;20229;-71
2022/01/05 01:30:30;;;;;;;0.70;0.70;;;8.00;42.60;;;;;;10421223;28;20259;-71
2022/01/05 01:35:33;;;;;;;0.80;0.80;;;8.00;42.90;;;;;;10420174;28;20233;-69
2022/01/05 01:40:36;;;;;;;0.60;0.60;;;7.90;42.70;;;;;;10427301;28;20710;-69
2022/01/05 01:45:41;;;;;;;0.60;0.60;;;7.80;42.90;;;;;;10426409;28;20230;-69
2022/01/05 01:50:44;;;;;;;0.70;0.70;;;7.70;43.20;;;;;;10423966;28;20645;-71
2022/01/05 01:55:49;;;;;;;1.00;1.00;;;7.70;43.30;;;;;;10418640;28;20724;-70
2022/01/05 02:00:55;;;;;;;0.70;0.70;;;7.60;43.40;;;;;;10422879;28;20336;-70
2022/01/05 02:05:58;;;;;;;0.80;0.80;;;7.60;43.70;;;;;;10414258;28;20805;-69
2022/01/05 02:11:02;;;;;;;0.63;0.63;;;7.60;43.70;;;;;;10426272;28;20426;-74
2022/01/05 02:16:07;;;;;;;0.60;0.60;;;7.60;43.70;;;;;;10424442;28;20229;-71
2022/01/05 02:21:14;;;;;;;0.80;0.80;;;7.70;43.90;;;;;;10420416;28;20252;-69
2022/01/05 02:26:18;;;;;;;0.60;0.60;;;7.70;44.00;;;;;;10421838;28;20710;-70
2022/01/05 02:31:21;;;;;;;1.07;0.83;;;7.70;44.40;;;;;;10417247;28;20600;-70
2022/01/05 02:36:26;;;;;;;1.00;1.00;;;7.60;43.80;;;;;;10416078;28;20309;-70
2022/01/05 02:41:29;;;;;;;1.07;1.07;;;7.60;44.10;;;;;;10417296;28;20804;-70
2022/01/05 02:46:34;;;;;;;1.30;1.20;;;7.60;44.20;;;;;;10422969;28;20233;-70
2022/01/05 02:51:39;;;;;;;1.17;1.17;;;7.60;44.40;;;;;;10420415;28;20253;-70
2022/01/05 02:56:42;;;;;;;2.60;0.90;;;7.60;44.80;;;;;;10417562;28;20240;-70
2022/01/05 03:01:46;;;;;;;0.90;0.90;;;7.60;44.40;;;;;;10421437;28;20229;-70
2022/01/05 03:06:51;;;;;;;0.70;0.70;;;7.60;44.40;;;;;;10418546;28;20225;-71
2022/01/05 03:11:54;;;;;;;0.60;0.60;;;7.60;44.80;;;;;;10416577;28;20604;-70
2022/01/05 03:16:57;;;;;;;0.60;0.60;;;7.60;44.80;;;;;;10416089;28;20229;-70
2022/01/05 03:22:02;;;;;;;0.50;0.50;;;7.60;44.80;;;;;;10419775;28;20221;-69
2022/01/05 03:27:06;;;;;;;0.70;0.70;;;7.50;45.10;;;;;;10426213;28;20546;-74
2022/01/05 03:32:10;;;;;;;0.50;0.50;;;7.60;44.90;;;;;;10419506;28;20731;-69
2022/01/05 03:37:15;;;;;;;0.60;0.60;;;7.60;44.80;;;;;;10416961;28;20240;-69
2022/01/05 03:42:18;;;;;;;0.87;0.60;;;7.50;45.20;;;;;;10417817;28;20229;-69
2022/01/05 03:47:21;;;;;;;0.63;0.63;;;7.50;44.80;;;;;;10419490;28;20240;-69
2022/01/05 03:52:26;;;;;;;0.60;0.60;;;7.50;44.80;;;;;;10416101;28;20692;-69
2022/01/05 03:57:32;;;;;;;0.60;0.60;;;7.50;45.30;;;;;;10418929;28;20233;-68
2022/01/05 04:02:36;;;;;;;0.60;0.60;;;7.50;45.10;;;;;;10421961;28;20232;-68
2022/01/05 04:07:41;;;;;;;0.50;0.50;;;7.50;45.20;;;;;;10412331;28;20233;-69
2022/01/05 04:12:44;;;;;;;0.50;0.50;;;7.50;45.50;;;;;;10418961;28;20221;-69
2022/01/05 04:17:48;;;;;;;0.53;0.40;;;7.50;45.30;;;;;;10417267;28;20323;-69
2022/01/05 04:22:52;;;;;;;0.43;0.43;;;7.60;45.60;;;;;;10416849;28;20221;-69
2022/01/05 04:27:55;;;;;;;1.30;0.50;;;7.60;45.70;;;;;;10417963;28;20229;-69
2022/01/05 04:32:59;;;;;;;0.50;0.50;;;7.60;45.40;;;;;;10418516;28;20992;-69
2022/01/05 04:38:23;;;;;;;1.03;0.77;;;7.60;45.50;;;;;;10421105;28;20237;-74
2022/01/05 04:43:26;;;;;;;0.47;0.47;;;7.60;45.70;;;;;;10415871;28;20236;-74
2022/01/05 04:48:33;;;;;;;0.50;0.50;;;7.70;45.60;;;;;;10421233;28;20232;-69
2022/01/05 04:53:39;;;;;;;0.50;0.50;;;7.70;45.40;;;;;;10425505;28;20229;-74
2022/01/05 04:58:42;;;;;;;0.40;0.40;;;7.60;45.60;;;;;;10421431;28;20229;-74
2022/01/05 05:03:45;;;;;;;0.53;0.53;;;7.60;45.40;;;;;;10424476;28;20256;-74
2022/01/05 05:08:51;;;;;;;0.50;0.50;;;7.60;45.50;;;;;;10420068;28;20764;-74
2022/01/05 05:13:54;;;;;;;0.40;0.40;;;7.60;45.80;;;;;;10424911;28;20227;-74
2022/01/05 05:18:57;;;;;;;0.53;0.53;;;7.60;45.50;;;;;;10425335;28;20225;-74
2022/01/05 05:24:02;;;;;;;0.50;0.50;;;7.60;45.60;;;;;;10424306;28;20221;-74
2022/01/05 05:29:05;;;;;;;0.50;0.50;;;7.60;45.80;;;;;;10423497;28;20240;-74
2022/01/05 05:34:08;;;;;;;0.47;0.47;;;7.60;45.80;;;;;;10427391;28;20237;-74
2022/01/05 05:39:13;;;;;;;0.40;0.40;;;7.70;45.80;;;;;;10430578;28;20557;-74
2022/01/05 05:44:16;;;;;;;0.40;0.40;;;7.70;46.00;;;;;;10419575;28;20236;-74
2022/01/05 05:49:19;;;;;;;0.47;0.47;;;7.70;45.50;;;;;;10421527;28;20233;-75
2022/01/05 05:54:23;;;;;;;0.43;0.43;;;7.70;45.50;;;;;;10427665;28;20232;-74
2022/01/05 05:59:27;;;;;;;0.50;0.50;;;7.70;45.40;;;;;;10430143;28;20235;-75
2022/01/05 06:04:30;;;;;;;0.47;0.47;;;7.70;45.50;;;;;;10423698;28;20217;-74
2022/01/05 06:09:36;;;;;;;0.50;0.50;;;7.70;45.50;;;;;;10425464;28;20229;-74
2022/01/05 06:14:39;;;;;;;0.63;0.63;;;7.60;45.80;;;;;;10422179;28;20220;-75
2022/01/05 06:19:42;;;;;;;0.60;0.60;;;7.60;45.70;;;;;;10424794;28;20221;-75
2022/01/05 06:24:46;;;;;;;0.60;0.60;;;7.60;45.70;;;;;;10430782;28;20235;-74
2022/01/05 06:29:50;;;;;;;0.70;0.70;;;7.60;45.80;;;;;;10425078;28;20228;-74
2022/01/05 06:34:53;;;;;;;0.50;0.50;;;7.70;45.50;;;;;;10420577;28;20236;-70
2022/01/05 06:39:58;;;;;;;0.40;0.40;;;7.80;45.40;;;;;;10424612;28;20229;-70
2022/01/05 06:45:02;;;;;;;0.53;0.53;;;7.80;45.50;;;;;;10418923;28;20229;-71
2022/01/05 06:50:06;;;;;;;0.50;0.50;;;7.80;45.40;;;;;;10419677;28;20347;-71
2022/01/05 06:55:11;;;;;;;0.50;0.50;;;7.80;45.50;;;;;;10422364;28;20224;-71
2022/01/05 07:00:15;;;;;;;0.50;0.50;;;7.80;45.60;;;;;;10415785;28;20728;-71
2022/01/05 07:05:18;;;;;;;0.70;0.70;;;7.80;45.30;;;;;;10414652;28;20240;-71
2022/01/05 07:10:23;;;;;;;0.63;0.63;;;7.80;45.30;;;;;;10417356;28;21210;-71
2022/01/05 07:15:26;;;;;;;0.63;0.63;;;7.80;45.50;;;;;;10417695;28;20236;-71
2022/01/05 07:20:29;;;;;;;0.60;0.60;;;7.80;45.10;;;;;;10422428;28;20264;-75
2022/01/05 07:25:34;;;;;;;0.80;0.80;;;7.80;45.20;;;;;;10422612;28;20229;-71
2022/01/05 07:30:37;;;;;;;0.77;0.77;;;7.80;45.40;;;;;;10415356;28;20221;-71
2022/01/05 07:35:40;;;;;;;1.10;1.10;;;7.80;45.10;;;;;;10421058;28;20653;-75
2022/01/05 07:40:45;;;;;;;0.90;0.90;;;7.80;45.30;;;;;;10415633;28;20317;-71
2022/01/05 07:45:49;;;;;;;0.80;0.80;;;7.90;45.40;;;;;;10419643;28;20236;-70
2022/01/05 07:50:52;;;;;;;0.80;0.80;;;7.90;45.10;;;;;;10416325;28;20320;-75
2022/01/05 07:55:57;;;;;;;0.90;0.90;;;7.80;45.40;;;;;;10422911;28;20233;-69
2022/01/05 08:01:00;;;;;;;0.80;0.80;;;7.80;45.50;;;;;;10411209;28;20233;-69
2022/01/05 08:06:05;;;;;;;0.90;0.90;;;7.90;45.50;;;;;;10421869;28;20314;-71
2022/01/05 08:11:10;;;;;;;0.70;0.70;;;7.90;45.60;;;;;;10418373;28;20225;-69
2022/01/05 08:16:13;;;;;;;0.87;0.87;;;8.00;45.50;;;;;;10418157;28;20237;-71
2022/01/05 08:21:17;;;;;;;1.10;1.10;;;8.00;45.20;;;;;;10419424;28;20264;-71
2022/01/05 08:26:22;;;;;;;0.77;0.77;;;8.00;45.20;;;;;;10428303;28;20230;-71
2022/01/05 08:31:26;;;;;;;0.83;0.83;;;8.00;45.30;;;;;;10426948;28;20236;-71
2022/01/05 08:36:29;;;;;;;1.37;0.80;;;8.00;45.20;;;;;;10424396;28;20235;-71
2022/01/05 08:41:34;;;;;;;1.60;0.80;;;8.00;45.20;;;;;;10427874;28;20590;-71
2022/01/05 08:46:37;;;;;;;1.50;0.90;;;8.00;43.60;;;;;;10426738;28;20241;-71
2022/01/05 08:51:40;;;;;;;1.43;0.97;;;7.70;43.00;;;;;;10424312;28;20299;-70
2022/01/05 08:56:45;;;;;;;1.33;1.00;;;7.50;43.40;;;;;;10437591;28;20237;-76
2022/01/05 09:01:48;;;;;;;1.50;0.90;;;7.30;43.50;;;;;;10421961;28;20217;-75
2022/01/05 09:06:51;;;;;;;1.70;1.10;;;7.10;43.80;;;;;;10424491;28;20233;-71
2022/01/05 09:11:56;;;;;;;1.07;1.07;;;7.00;44.10;;;;;;10422806;28;20225;-71
2022/01/05 09:16:59;;;;;;;1.10;1.10;;;6.80;44.20;;;;;;10423398;28;20236;-70
2022/01/05 09:22:03;;;;;;;2.00;1.30;;;6.80;44.40;;;;;;10422681;28;20256;-70
2022/01/05 09:27:25;;;;;;;1.40;1.30;;;6.80;44.60;;;;;;10425575;28;20227;-71
2022/01/05 09:32:28;;;;;;;1.50;1.40;;;6.80;44.60;;;;;;10430702;28;20599;-71
2022/01/05 09:37:39;;;;;;;1.67;1.40;;;6.80;44.80;;;;;;10418430;28;20627;-71
2022/01/05 09:42:43;;;;;;;1.50;1.40;;;6.70;44.80;;;;;;10425694;28;20221;-71
2022/01/05 09:48:16;;;;;;;1.70;1.60;;;6.80;44.80;;;;;;10425947;28;20262;-74
2022/01/05 09:53:19;;;;;;;1.27;1.27;;;6.80;44.90;;;;;;10421452;28;20229;-75
2022/01/05 09:58:24;;;;;;;1.70;1.60;;;6.90;44.60;;;;;;10424723;28;20257;-74
2022/01/05 10:03:28;;;;;;;3.67;1.87;;;6.80;43.60;;;;;;10423597;28;20740;-75
2022/01/05 10:08:31;;;;;;;2.13;1.60;;;6.90;43.70;;;;;;10425304;28;20694;-74
2022/01/05 10:13:36;;;;;;;2.30;1.90;;;6.90;43.80;;;;;;10425681;28;20759;-74
2022/01/05 10:18:41;;;;;;;1.87;1.73;;;6.90;43.80;;;;;;10426353;28;20326;-74
2022/01/05 10:23:47;;;;;;;2.00;1.60;;;6.80;44.10;;;;;;10425180;28;20227;-74
2022/01/05 10:28:52;;;;;;;2.23;2.13;;;6.90;44.00;;;;;;10422786;28;20288;-74
2022/01/05 10:33:56;;;;;;;1.77;1.60;;;7.00;43.90;;;;;;10420593;28;20347;-74
2022/01/05 10:39:03;;;;;;;1.83;1.60;;;7.10;43.80;;;;;;10411619;28;20314;-71
2022/01/05 10:44:19;;;;;;;1.83;1.50;;;7.10;42.90;;;;;;10414669;28;20284;-75
2022/01/05 10:49:31;;;;;;;3.43;1.70;;;7.10;42.50;;;;;;10414774;28;20639;-75
2022/01/05 10:54:35;;;;;;;1.87;1.57;;;7.00;42.00;;;;;;10418172;28;20482;-75
2022/01/05 10:59:42;;;;;;;2.50;1.70;;;6.90;42.90;;;;;;10406733;28;20796;-70
2022/01/05 11:04:45;;;;;;;2.67;1.40;;;6.90;42.50;;;;;;10415068;28;20265;-75
2022/01/05 11:09:58;;;;;;;2.47;1.53;;;6.90;42.50;;;;;;10421318;28;20230;-75
2022/01/05 11:15:36;;;;;;;2.13;1.43;;;6.90;42.00;;;;;;10420179;28;20226;-70
2022/01/05 11:20:42;;;;;;;2.67;2.10;;;6.80;41.40;;;;;;10259951;28;20223;-70
2022/01/05 11:25:46;;;;;;;2.57;1.77;;;6.70;42.40;;;;;;10357189;28;20226;-70
2022/01/05 11:30:52;;;;;;;1.83;1.50;;;6.60;42.10;;;;;;10389028;28;20237;-70
2022/01/05 11:35:58;;;;;;;1.40;1.30;;;6.50;42.30;;;;;;10419977;28;20256;-69
2022/01/05 11:41:01;;;;;;;2.07;1.60;;;6.50;42.30;;;;;;10414866;28;20312;-71
2022/01/05 11:46:16;;;;;;;1.40;1.30;;;6.50;42.40;;;;;;10420415;28;20231;-71
2022/01/05 11:51:30;;;;;;;1.67;1.33;;;6.50;41.90;;;;;;10414446;28;20234;-71
2022/01/05 11:56:42;;;;;;;2.37;1.53;;;6.50;42.10;;;;;;10423251;28;20230;-71
2022/01/05 12:01:57;;;;;;;1.20;1.10;;;6.50;42.20;;;;;;10421677;28;20221;-72
2022/01/05 12:07:03;;;;;;;1.87;1.27;;;6.50;41.40;;;;;;10414004;28;20231;-72
2022/01/05 12:12:30;;;;;;;1.37;1.20;;;6.50;41.90;;;;;;10417239;28;20236;-71
2022/01/05 12:17:35;;;;;;;3.73;1.33;;;6.40;41.80;;;;;;10419381;28;20248;-72
2022/01/05 12:22:39;;;;;;;2.33;1.20;;;6.50;42.20;;;;;;10424098;28;20325;-72
2022/01/05 12:28:02;;;;;;;2.80;1.33;;;6.50;42.30;;;;;;10419781;28;20227;-71
2022/01/05 12:33:18;;;;;;;2.63;1.40;;;6.50;41.50;;;;;;10414818;28;20280;-71
2022/01/05 12:38:46;;;;;;;1.90;1.10;;;6.50;41.50;;;;;;10418691;28;20666;-71
2022/01/05 12:43:50;;;;;;;3.00;1.23;;;6.50;40.60;;;;;;10416316;28;20227;-71
2022/01/05 12:49:04;;;;;;;1.87;1.10;;;6.50;40.70;;;;;;10417729;28;20650;-72
2022/01/05 12:54:11;;;;;;;1.77;1.40;;;6.50;40.00;;;;;;10418285;28;20233;-71
2022/01/05 12:59:17;;;;;;;2.40;1.37;;;6.50;40.00;;;;;;10415854;28;20612;-71
2022/01/05 13:04:24;;;;;;;1.33;1.17;;;6.40;40.00;;;;;;10403996;28;20222;-71
2022/01/05 13:09:31;;;;;;;3.50;1.60;;;6.40;40.70;;;;;;10416940;28;20290;-71
2022/01/05 13:14:37;;;;;;;2.97;1.40;;;6.40;40.00;;;;;;10415833;28;20233;-71
2022/01/05 13:19:44;;;;;;;4.37;1.70;;;6.40;40.50;;;;;;10416643;28;20225;-71
2022/01/05 13:24:58;;;;;;;4.00;2.77;;;6.40;40.20;;;;;;10419044;28;20240;-71
2022/01/05 13:30:05;;;;;;;4.43;2.83;;;6.40;39.90;;;;;;10417609;28;20682;-71
2022/01/05 13:35:12;;;;;;;3.57;2.10;;;6.40;39.80;;;;;;10400119;28;20226;-71
2022/01/05 13:40:18;;;;;;;4.57;1.73;;;6.50;38.30;;;;;;10418834;28;20221;-70
2022/01/05 13:45:24;;;;;;;3.03;1.47;;;6.50;39.90;;;;;;10425686;28;20233;-70
2022/01/05 13:50:34;;;;;;;2.27;1.80;;;6.50;38.40;;;;;;10377403;28;20230;-70
2022/01/05 13:55:41;;;;;;;1.73;1.43;;;6.60;38.10;;;;;;10384558;28;20234;-70
2022/01/05 14:00:47;;;;;;;3.97;1.43;;;6.50;38.00;;;;;;10385833;28;20249;-70
2022/01/05 14:05:52;;;;;;;3.93;1.60;;;6.50;38.20;;;;;;10381865;28;20760;-69
2022/01/05 14:11:06;;;;;;;2.70;1.50;;;6.40;37.10;;;;;;10385694;28;20222;-71
2022/01/05 14:16:15;;;;;;;3.70;1.43;;;6.30;36.50;;;;;;10375471;28;20222;-72
2022/01/05 14:21:28;;;;;;;2.43;1.70;;;6.30;37.80;;;;;;10383818;28;20218;-72
2022/01/05 14:26:33;;;;;;;4.63;1.47;;;6.20;37.30;;;;;;10425101;28;20601;-76
2022/01/05 14:31:40;;;;;;;5.13;1.70;;;6.20;37.70;;;;;;10421218;28;20600;-77
2022/01/05 14:36:47;;;;;;;2.97;1.70;;;6.20;38.00;;;;;;10418350;28;20217;-76
2022/01/05 14:41:59;;;;;;;3.27;1.87;;;6.10;38.50;;;;;;10419895;28;20308;-77
2022/01/05 14:47:04;;;;;;;2.13;1.50;;;6.10;37.90;;;;;;10420098;28;20224;-76
2022/01/05 14:52:11;;;;;;;4.03;2.53;;;6.10;38.80;;;;;;10420001;28;21223;-76
2022/01/05 14:57:17;;;;;;;3.53;1.80;;;6.00;38.30;;;;;;10417838;28;20596;-76
2022/01/05 15:02:20;;;;;;;3.80;1.70;;;6.10;38.60;;;;;;10421489;28;21172;-76
2022/01/05 15:07:25;;;;;;;3.60;1.50;;;6.10;38.80;;;;;;10427048;28;20606;-75
2022/01/05 15:12:30;;;;;;;2.63;1.70;;;6.20;38.40;;;;;;10417058;28;20233;-75
2022/01/05 15:17:34;;;;;;;6.00;2.00;;;6.20;38.50;;;;;;10421261;28;20241;-72
2022/01/05 15:22:38;;;;;;;12.67;3.30;;;6.10;39.00;;;;;;10418187;28;20223;-72
2022/01/05 15:27:41;;;;;;;19.70;4.87;;;6.20;40.40;;;;;;10428391;28;20232;-72
2022/01/05 15:32:44;;;;;;;6.70;2.37;;;6.20;40.30;;;;;;10419675;28;20255;-72
2022/01/05 15:37:49;;;;;;;4.57;1.63;;;6.30;40.10;;;;;;10418947;28;20600;-77
2022/01/05 15:42:52;;;;;;;3.20;1.60;;;6.40;39.20;;;;;;10423612;28;20232;-77
2022/01/05 15:47:56;;;;;;;5.33;2.03;;;6.50;39.10;;;;;;10416369;28;20260;-77
2022/01/05 15:53:02;;;;;;;4.60;1.77;;;6.50;38.60;;;;;;10421367;28;20229;-77
2022/01/05 16:01:06;;;;;;;4.70;2.00;;;6.50;38.00;;;;;;10417394;28;20226;-77
2022/01/05 16:03:28;;;;;;;4.43;1.77;;;6.30;38.70;;;;;;10414001;28;20229;-77
2022/01/05 16:08:33;;;;;;;3.73;1.60;;;6.30;38.40;;;;;;10415019;28;20226;-77
2022/01/05 16:13:36;;;;;;;3.77;1.73;;;6.20;38.20;;;;;;10420703;28;20246;-77
2022/01/05 16:18:39;;;;;;;3.77;1.70;;;6.10;38.50;;;;;;10419670;28;20232;-77
2022/01/05 16:23:44;;;;;;;5.40;1.87;;;6.00;38.80;;;;;;10418637;28;20241;-77
2022/01/05 16:28:48;;;;;;;3.37;1.70;;;6.00;38.60;;;;;;10414551;28;20257;-77
2022/01/05 16:33:51;;;;;;;4.83;1.80;;;6.00;38.60;;;;;;10420006;28;20225;-77
2022/01/05 16:38:55;;;;;;;6.00;2.13;;;6.10;38.80;;;;;;10422245;28;20221;-77
2022/01/05 16:43:58;;;;;;;6.07;1.80;;;6.10;38.50;;;;;;10420379;28;20226;-76
2022/01/05 16:49:02;;;;;;;3.70;1.57;;;6.10;38.80;;;;;;10420018;28;20229;-76
2022/01/05 16:54:08;;;;;;;7.53;2.23;;;6.10;38.70;;;;;;10425996;28;20233;-77
2022/01/05 17:04:32;;;;;;;6.33;2.20;;;6.10;38.90;;;;;;10424519;28;20232;-77
2022/01/05 17:09:37;;;;;;;3.90;1.90;;;6.00;38.70;;;;;;10426923;28;20225;-76
2022/01/05 17:14:41;;;;;;;3.77;2.10;;;6.00;38.50;;;;;;10428755;28;20225;-77
2022/01/05 17:19:44;;;;;;;5.93;2.00;;;6.00;38.60;;;;;;10424166;28;20251;-76
2022/01/05 17:24:49;;;;;;;5.23;2.50;;;5.90;38.80;;;;;;10429267;28;20245;-76
2022/01/05 17:29:52;;;;;;;3.60;2.60;;;5.90;38.40;;;;;;10427204;28;20229;-76
2022/01/05 17:34:55;;;;;;;4.83;2.33;;;5.90;38.80;;;;;;10422216;28;20229;-76
2022/01/05 17:40:00;;;;;;;3.00;2.00;;;6.00;38.90;;;;;;10420994;28;20232;-76
2022/01/05 17:45:05;;;;;;;3.47;1.87;;;6.00;38.30;;;;;;10422518;28;20225;-76
2022/01/05 17:50:09;;;;;;;4.07;1.50;;;6.00;38.40;;;;;;10420304;28;20231;-76
2022/01/05 17:55:36;;;;;;;4.17;1.93;;;6.00;38.40;;;;;;10414746;28;20228;-76
2022/01/05 18:00:42;;;;;;;6.10;2.70;;;6.00;37.90;;;;;;10423566;28;20232;-76
2022/01/05 18:05:46;;;;;;;3.67;2.00;;;6.00;38.40;;;;;;10421204;28;20229;-76
2022/01/05 18:10:51;;;;;;;4.60;1.90;;;5.90;38.30;;;;;;10420867;28;20262;-76
2022/01/05 18:16:03;;;;;;;3.13;2.23;;;5.90;38.20;;;;;;10420501;28;20232;-76
2022/01/05 18:21:07;;;;;;;4.30;2.07;;;5.90;38.10;;;;;;10423448;28;20690;-75
2022/01/05 18:26:16;;;;;;;3.43;2.17;;;5.90;38.50;;;;;;10417016;28;20225;-75
2022/01/05 18:31:20;;;;;;;4.20;2.20;;;5.90;38.60;;;;;;10419225;28;20231;-76
2022/01/05 18:36:25;;;;;;;3.70;2.00;;;5.80;38.70;;;;;;10426564;28;20229;-75
2022/01/05 18:41:30;;;;;;;3.30;1.70;;;5.80;38.70;;;;;;10428054;28;20229;-75
2022/01/05 18:46:33;;;;;;;3.60;1.63;;;5.80;38.50;;;;;;10423467;28;20701;-75
2022/01/05 18:51:36;;;;;;;6.83;2.80;;;5.80;38.80;;;;;;10419676;28;20229;-75
2022/01/05 18:56:41;;;;;;;3.83;2.10;;;5.70;38.90;;;;;;10419774;28;20259;-75
2022/01/05 19:01:44;;;;;;;3.03;1.97;;;5.70;38.80;;;;;;10421399;28;20760;-75
2022/01/05 19:06:48;;;;;;;3.20;1.80;;;5.70;38.90;;;;;;10419723;28;20221;-75
2022/01/05 19:11:53;;;;;;;4.73;1.97;;;5.70;38.70;;;;;;10416286;28;20221;-75
2022/01/05 19:16:56;;;;;;;3.70;1.97;;;5.70;38.40;;;;;;10419614;28;20597;-75
2022/01/05 19:21:59;;;;;;;3.37;1.80;;;5.80;38.60;;;;;;10417480;28;20581;-75
2022/01/05 19:27:04;;;;;;;2.87;1.80;;;5.70;38.50;;;;;;10422148;28;20221;-74
2022/01/05 19:32:07;;;;;;;9.17;6.00;;;5.70;38.60;;;;;;10424597;28;20221;-75
2022/01/05 19:37:10;;;;;;;5.73;4.10;;;5.70;38.70;;;;;;10416738;28;20232;-75
2022/01/05 19:42:16;;;;;;;10.03;6.00;;;5.60;38.80;;;;;;10413819;28;20229;-75
2022/01/05 19:47:20;;;;;;;5.53;3.50;;;5.60;38.50;;;;;;10415002;28;20232;-75
2022/01/05 19:52:34;;;;;;;5.40;3.07;;;5.60;38.80;;;;;;10414531;28;20225;-75
2022/01/05 19:57:39;;;;;;;6.73;2.33;;;5.60;38.70;;;;;;10421758;28;20604;-72
2022/01/05 20:02:42;;;;;;;3.47;2.00;;;5.60;38.20;;;;;;10419816;28;20217;-70
2022/01/05 20:07:46;;;;;;;2.77;1.80;;;5.60;38.40;;;;;;10418378;28;20229;-70
2022/01/05 20:12:51;;;;;;;3.43;1.63;;;5.70;38.60;;;;;;10417469;28;20237;-71
2022/01/05 20:17:55;;;;;;;3.40;1.93;;;5.70;38.40;;;;;;10414649;28;20225;-70
2022/01/05 20:22:58;;;;;;;3.50;1.87;;;5.70;38.60;;;;;;10413275;28;20227;-70
2022/01/05 20:28:03;;;;;;;4.23;2.07;;;5.70;38.40;;;;;;10417868;28;20231;-74
2022/01/05 20:33:07;;;;;;;3.30;1.80;;;5.60;38.00;;;;;;10413868;28;20228;-75
2022/01/05 20:38:10;;;;;;;4.83;2.10;;;5.60;38.00;;;;;;10414539;28;20233;-70
2022/01/05 20:43:15;;;;;;;3.03;1.63;;;5.60;38.20;;;;;;10415896;28;20217;-70
2022/01/05 20:48:19;;;;;;;3.20;1.50;;;5.60;38.30;;;;;;10410006;28;20710;-70
2022/01/05 20:53:22;;;;;;;4.60;1.83;;;5.60;38.70;;;;;;10409667;28;20239;-70
2022/01/05 20:58:27;;;;;;;3.77;1.50;;;5.50;38.00;;;;;;10416311;28;20705;-70
2022/01/05 21:03:30;;;;;;;4.33;1.70;;;5.50;38.20;;;;;;10413502;28;20295;-70
2022/01/05 21:08:34;;;;;;;3.93;1.60;;;5.50;38.60;;;;;;10411667;28;20226;-70
2022/01/05 21:13:38;;;;;;;3.47;1.60;;;5.60;38.60;;;;;;10410250;28;20229;-70
2022/01/05 21:18:44;;;;;;;4.23;1.73;;;5.60;38.40;;;;;;10410417;28;20225;-70
2022/01/05 21:23:48;;;;;;;2.93;1.70;;;5.60;38.30;;;;;;10415606;28;20213;-71
2022/01/05 21:28:52;;;;;;;2.23;1.43;;;5.60;38.40;;;;;;10411692;28;20248;-72
2022/01/05 21:33:56;;;;;;;4.97;1.60;;;5.60;38.20;;;;;;10415545;28;20240;-72
2022/01/05 21:38:59;;;;;;;4.63;1.80;;;5.60;38.30;;;;;;10423478;28;20585;-72
2022/01/05 21:44:05;;;;;;;4.80;1.73;;;5.60;38.20;;;;;;10422564;28;20226;-71
2022/01/05 21:49:08;;;;;;;4.73;1.77;;;5.70;38.20;;;;;;10420737;28;20587;-72
2022/01/05 21:54:11;;;;;;;3.73;1.60;;;5.70;38.40;;;;;;10434121;28;20229;-72
2022/01/05 21:59:16;;;;;;;4.70;2.83;;;5.70;38.30;;;;;;10424622;28;20229;-71
2022/01/05 22:04:19;;;;;;;4.17;2.03;;;5.70;38.30;;;;;;10424405;28;20249;-72
2022/01/05 22:09:23;;;;;;;3.93;2.10;;;5.60;38.40;;;;;;10433224;28;20611;-72
2022/01/05 22:14:28;;;;;;;2.20;1.67;;;5.60;38.40;;;;;;10420755;28;20267;-72
2022/01/05 22:19:31;;;;;;;6.07;1.97;;;5.60;38.40;;;;;;10409075;28;20309;-71
2022/01/05 22:24:35;;;;;;;2.93;1.43;;;5.60;38.50;;;;;;10415114;28;20225;-72
2022/01/05 22:29:40;;;;;;;3.93;1.70;;;5.60;38.70;;;;;;10411056;28;20225;-71
2022/01/05 22:34:44;;;;;;;4.77;1.60;;;5.60;38.60;;;;;;10410542;28;20236;-72
2022/01/05 22:39:47;;;;;;;4.37;1.93;;;5.60;38.80;;;;;;10413453;28;20475;-71
2022/01/05 22:44:53;;;;;;;4.47;1.70;;;5.60;38.70;;;;;;10410340;28;20225;-72
2022/01/05 22:49:56;;;;;;;4.67;1.80;;;5.60;38.40;;;;;;10420776;28;20625;-71
2022/01/05 22:54:59;;;;;;;3.70;1.80;;;5.60;38.80;;;;;;10420408;28;20225;-72
2022/01/05 23:00:10;;;;;;;4.90;2.00;;;5.60;38.70;;;;;;10417472;28;20792;-75
2022/01/05 23:05:13;;;;;;;4.67;1.67;;;5.60;38.60;;;;;;10413943;28;20231;-75
2022/01/05 23:10:18;;;;;;;4.00;2.00;;;5.60;38.70;;;;;;10414694;28;20245;-72
2022/01/05 23:15:23;;;;;;;2.43;1.70;;;5.60;38.70;;;;;;10418408;28;21822;-72
2022/01/05 23:20:31;;;;;;;2.70;1.60;;;5.60;38.60;;;;;;10414167;28;20232;-72
2022/01/05 23:25:34;;;;;;;4.47;1.83;;;5.60;38.70;;;;;;10414163;28;20222;-71
2022/01/05 23:30:39;;;;;;;4.87;1.70;;;5.60;38.80;;;;;;10419561;28;20712;-72
2022/01/05 23:35:53;;;;;;;2.77;1.63;;;5.60;38.90;;;;;;10415935;28;20229;-72
2022/01/05 23:40:57;;;;;;;3.47;1.90;;;5.50;38.90;;;;;;10413158;28;20226;-72
2022/01/05 23:46:04;;;;;;;2.27;1.40;;;5.60;38.90;;;;;;10415589;28;20822;-71
2022/01/05 23:51:07;;;;;;;2.63;1.83;;;5.60;39.10;;;;;;10417329;28;20233;-72
2022/01/05 23:56:11;;;;;;;6.10;1.97;;;5.50;39.10;;;;;;10415588;28;20771;-72
